sensor_id;sensor_type;location;lat;lon;timestamp;P1;durP1;ratioP1;P2;durP2;ratioP2
30888;SDS011;51092;50.874;7.024;2023-05-29T00:00:52;12.07;;;4.80;;
30888;SDS011;51092;50.874;7.024;2023-05-29T00:01:55;10.57;;;4.57;;
30888;SDS011;51092;50.874;7.024;2023-05-29T00:02:57;11.43;;;3.88;;
30888;SDS011;51092;50.874;7.024;2023-05-29T00:03:59;10.13;;;4.65;;
30888;SDS011;51092;50.874;7.024;2023-05-29T00:05:01;11.70;;;4.65;;
30888;SDS011;51092;50.874;7.024;2023-05-29T00:06:04;13.90;;;4.78;;
30888;SDS011;51092;50.874;7.024;2023-05-29T00:07:07;10.15;;;4.68;;
30888;SDS011;51092;50.874;7.024;2023-05-29T00:08:08;8.10;;;4.95;;
30888;SDS011;51092;50.874;7.024;2023-05-29T00:09:11;12.57;;;4.63;;
30888;SDS011;51092;50.874;7.024;2023-05-29T00:10:13;11.30;;;4.45;;
30888;SDS011;51092;50.874;7.024;2023-05-29T00:11:16;11.00;;;5.40;;
30888;SDS011;51092;50.874;7.024;2023-05-29T00:12:17;12.48;;;4.90;;
30888;SDS011;51092;50.874;7.024;2023-05-29T00:13:20;13.80;;;4.72;;
30888;SDS011;51092;50.874;7.024;2023-05-29T00:14:21;11.10;;;5.05;;
30888;SDS011;51092;50.874;7.024;2023-05-29T00:15:24;10.55;;;5.43;;
30888;SDS011;51092;50.874;7.024;2023-05-29T00:16:26;9.75;;;4.75;;
30888;SDS011;51092;50.874;7.024;2023-05-29T00:17:31;13.95;;;4.82;;
30888;SDS011;51092;50.874;7.024;2023-05-29T00:18:33;12.68;;;5.00;;
30888;SDS011;51092;50.874;7.024;2023-05-29T00:19:35;10.65;;;4.65;;
30888;SDS011;51092;50.874;7.024;2023-05-29T00:20:37;11.95;;;5.32;;
30888;SDS011;51092;50.874;7.024;2023-05-29T00:21:39;13.90;;;5.43;;
30888;SDS011;51092;50.874;7.024;2023-05-29T00:22:41;6.63;;;4.45;;
30888;SDS011;51092;50.874;7.024;2023-05-29T00:23:43;14.30;;;5.50;;
30888;SDS011;51092;50.874;7.024;2023-05-29T00:24:45;10.15;;;5.18;;
30888;SDS011;51092;50.874;7.024;2023-05-29T00:25:47;13.10;;;4.70;;
30888;SDS011;51092;50.874;7.024;2023-05-29T00:26:49;12.02;;;5.10;;
30888;SDS011;51092;50.874;7.024;2023-05-29T00:27:52;10.52;;;5.00;;
30888;SDS011;51092;50.874;7.024;2023-05-29T00:28:53;9.15;;;4.18;;
30888;SDS011;51092;50.874;7.024;2023-05-29T00:29:56;12.43;;;4.60;;
30888;SDS011;51092;50.874;7.024;2023-05-29T00:30:57;13.70;;;4.95;;
30888;SDS011;51092;50.874;7.024;2023-05-29T00:32:01;17.02;;;4.63;;
30888;SDS011;51092;50.874;7.024;2023-05-29T00:33:04;15.20;;;5.63;;
30888;SDS011;51092;50.874;7.024;2023-05-29T00:34:06;11.23;;;4.80;;
30888;SDS011;51092;50.874;7.024;2023-05-29T00:35:08;11.07;;;5.10;;
30888;SDS011;51092;50.874;7.024;2023-05-29T00:36:11;9.45;;;4.88;;
30888;SDS011;51092;50.874;7.024;2023-05-29T00:37:13;16.80;;;5.68;;
30888;SDS011;51092;50.874;7.024;2023-05-29T00:38:15;9.13;;;4.90;;
30888;SDS011;51092;50.874;7.024;2023-05-29T00:39:17;13.90;;;5.25;;
30888;SDS011;51092;50.874;7.024;2023-05-29T00:40:19;8.98;;;4.47;;
30888;SDS011;51092;50.874;7.024;2023-05-29T00:41:21;9.70;;;4.95;;
30888;SDS011;51092;50.874;7.024;2023-05-29T00:43:34;12.00;;;4.82;;
30888;SDS011;51092;50.874;7.024;2023-05-29T00:44:37;10.93;;;4.72;;
30888;SDS011;51092;50.874;7.024;2023-05-29T00:45:38;11.05;;;5.13;;
30888;SDS011;51092;50.874;7.024;2023-05-29T00:46:40;8.82;;;4.50;;
30888;SDS011;51092;50.874;7.024;2023-05-29T00:47:42;10.40;;;4.72;;
30888;SDS011;51092;50.874;7.024;2023-05-29T00:48:46;13.77;;;5.30;;
30888;SDS011;51092;50.874;7.024;2023-05-29T00:49:49;8.55;;;4.60;;
30888;SDS011;51092;50.874;7.024;2023-05-29T00:50:52;10.93;;;5.07;;
30888;SDS011;51092;50.874;7.024;2023-05-29T00:51:53;10.50;;;5.05;;
30888;SDS011;51092;50.874;7.024;2023-05-29T00:52:56;8.52;;;4.93;;
30888;SDS011;51092;50.874;7.024;2023-05-29T00:53:58;10.45;;;4.88;;
30888;SDS011;51092;50.874;7.024;2023-05-29T00:55:01;9.60;;;5.20;;
30888;SDS011;51092;50.874;7.024;2023-05-29T00:56:04;10.88;;;4.57;;
30888;SDS011;51092;50.874;7.024;2023-05-29T00:57:07;10.07;;;5.07;;
30888;SDS011;51092;50.874;7.024;2023-05-29T00:58:09;10.57;;;5.28;;
30888;SDS011;51092;50.874;7.024;2023-05-29T00:59:12;10.40;;;4.95;;
30888;SDS011;51092;50.874;7.024;2023-05-29T01:00:13;9.02;;;4.60;;
30888;SDS011;51092;50.874;7.024;2023-05-29T01:01:16;15.63;;;4.38;;
30888;SDS011;51092;50.874;7.024;2023-05-29T01:02:18;12.25;;;5.75;;
30888;SDS011;51092;50.874;7.024;2023-05-29T01:03:23;10.30;;;5.25;;
30888;SDS011;51092;50.874;7.024;2023-05-29T01:04:27;12.43;;;5.32;;
30888;SDS011;51092;50.874;7.024;2023-05-29T01:05:29;11.55;;;5.13;;
30888;SDS011;51092;50.874;7.024;2023-05-29T01:06:33;12.07;;;5.25;;
30888;SDS011;51092;50.874;7.024;2023-05-29T01:07:35;9.73;;;4.80;;
30888;SDS011;51092;50.874;7.024;2023-05-29T01:08:37;9.20;;;5.07;;
30888;SDS011;51092;50.874;7.024;2023-05-29T01:09:39;9.05;;;4.38;;
30888;SDS011;51092;50.874;7.024;2023-05-29T01:10:41;14.70;;;5.57;;
30888;SDS011;51092;50.874;7.024;2023-05-29T01:11:45;10.25;;;4.88;;
30888;SDS011;51092;50.874;7.024;2023-05-29T01:12:56;9.05;;;5.13;;
30888;SDS011;51092;50.874;7.024;2023-05-29T01:14:05;8.25;;;4.65;;
30888;SDS011;51092;50.874;7.024;2023-05-29T01:15:14;11.98;;;4.75;;
30888;SDS011;51092;50.874;7.024;2023-05-29T01:16:25;11.63;;;4.85;;
30888;SDS011;51092;50.874;7.024;2023-05-29T01:17:37;8.68;;;4.75;;
30888;SDS011;51092;50.874;7.024;2023-05-29T01:18:50;10.80;;;5.50;;
30888;SDS011;51092;50.874;7.024;2023-05-29T01:20:02;11.02;;;5.32;;
30888;SDS011;51092;50.874;7.024;2023-05-29T01:21:15;13.57;;;6.05;;
30888;SDS011;51092;50.874;7.024;2023-05-29T01:22:25;10.55;;;4.93;;
30888;SDS011;51092;50.874;7.024;2023-05-29T01:23:57;13.07;;;6.38;;
30888;SDS011;51092;50.874;7.024;2023-05-29T01:25:07;8.57;;;4.88;;
30888;SDS011;51092;50.874;7.024;2023-05-29T01:26:20;17.20;;;5.15;;
30888;SDS011;51092;50.874;7.024;2023-05-29T01:27:29;9.30;;;5.00;;
30888;SDS011;51092;50.874;7.024;2023-05-29T01:28:33;13.10;;;5.22;;
30888;SDS011;51092;50.874;7.024;2023-05-29T01:29:41;10.77;;;5.80;;
30888;SDS011;51092;50.874;7.024;2023-05-29T01:30:46;10.95;;;5.55;;
30888;SDS011;51092;50.874;7.024;2023-05-29T01:31:50;10.45;;;5.28;;
30888;SDS011;51092;50.874;7.024;2023-05-29T01:32:53;13.45;;;5.35;;
30888;SDS011;51092;50.874;7.024;2023-05-29T01:33:57;13.30;;;5.88;;
30888;SDS011;51092;50.874;7.024;2023-05-29T01:35:00;11.45;;;4.60;;
30888;SDS011;51092;50.874;7.024;2023-05-29T01:36:03;15.13;;;5.60;;
30888;SDS011;51092;50.874;7.024;2023-05-29T01:37:05;13.55;;;6.07;;
30888;SDS011;51092;50.874;7.024;2023-05-29T01:38:07;10.38;;;5.00;;
30888;SDS011;51092;50.874;7.024;2023-05-29T01:39:09;10.55;;;5.50;;
30888;SDS011;51092;50.874;7.024;2023-05-29T01:40:12;14.13;;;7.28;;
30888;SDS011;51092;50.874;7.024;2023-05-29T01:41:14;11.32;;;5.55;;
30888;SDS011;51092;50.874;7.024;2023-05-29T01:42:17;9.85;;;4.85;;
30888;SDS011;51092;50.874;7.024;2023-05-29T01:43:20;11.65;;;5.32;;
30888;SDS011;51092;50.874;7.024;2023-05-29T01:44:23;14.30;;;5.63;;
30888;SDS011;51092;50.874;7.024;2023-05-29T01:45:25;11.30;;;5.43;;
30888;SDS011;51092;50.874;7.024;2023-05-29T01:46:28;9.70;;;5.68;;
30888;SDS011;51092;50.874;7.024;2023-05-29T01:47:30;12.13;;;5.38;;
30888;SDS011;51092;50.874;7.024;2023-05-29T01:48:33;9.30;;;5.00;;
30888;SDS011;51092;50.874;7.024;2023-05-29T01:49:34;10.00;;;4.85;;
30888;SDS011;51092;50.874;7.024;2023-05-29T01:50:38;8.65;;;5.60;;
30888;SDS011;51092;50.874;7.024;2023-05-29T01:51:44;9.77;;;4.78;;
30888;SDS011;51092;50.874;7.024;2023-05-29T01:52:47;12.32;;;5.20;;
30888;SDS011;51092;50.874;7.024;2023-05-29T01:53:48;11.68;;;5.55;;
30888;SDS011;51092;50.874;7.024;2023-05-29T01:54:51;13.05;;;4.53;;
30888;SDS011;51092;50.874;7.024;2023-05-29T01:55:52;14.77;;;5.50;;
30888;SDS011;51092;50.874;7.024;2023-05-29T01:56:55;8.63;;;5.05;;
30888;SDS011;51092;50.874;7.024;2023-05-29T01:57:57;12.43;;;6.10;;
30888;SDS011;51092;50.874;7.024;2023-05-29T01:59:02;9.77;;;5.72;;
30888;SDS011;51092;50.874;7.024;2023-05-29T02:00:05;12.48;;;4.85;;
30888;SDS011;51092;50.874;7.024;2023-05-29T02:01:09;8.57;;;4.80;;
30888;SDS011;51092;50.874;7.024;2023-05-29T02:02:11;9.43;;;5.57;;
30888;SDS011;51092;50.874;7.024;2023-05-29T02:03:13;7.78;;;4.85;;
30888;SDS011;51092;50.874;7.024;2023-05-29T02:04:15;17.38;;;5.93;;
30888;SDS011;51092;50.874;7.024;2023-05-29T02:05:17;15.60;;;5.57;;
30888;SDS011;51092;50.874;7.024;2023-05-29T02:06:19;12.25;;;4.97;;
30888;SDS011;51092;50.874;7.024;2023-05-29T02:07:22;11.38;;;5.78;;
30888;SDS011;51092;50.874;7.024;2023-05-29T02:08:23;8.05;;;5.55;;
30888;SDS011;51092;50.874;7.024;2023-05-29T02:09:26;10.25;;;6.00;;
30888;SDS011;51092;50.874;7.024;2023-05-29T02:10:28;8.80;;;5.32;;
30888;SDS011;51092;50.874;7.024;2023-05-29T02:11:30;10.43;;;5.40;;
30888;SDS011;51092;50.874;7.024;2023-05-29T02:12:32;7.65;;;4.40;;
30888;SDS011;51092;50.874;7.024;2023-05-29T02:13:34;8.77;;;4.18;;
30888;SDS011;51092;50.874;7.024;2023-05-29T02:14:37;8.73;;;4.35;;
30888;SDS011;51092;50.874;7.024;2023-05-29T02:15:41;10.00;;;4.60;;
30888;SDS011;51092;50.874;7.024;2023-05-29T02:16:42;7.75;;;4.70;;
30888;SDS011;51092;50.874;7.024;2023-05-29T02:17:45;12.88;;;4.80;;
30888;SDS011;51092;50.874;7.024;2023-05-29T02:18:47;10.70;;;5.78;;
30888;SDS011;51092;50.874;7.024;2023-05-29T02:19:49;10.70;;;5.40;;
30888;SDS011;51092;50.874;7.024;2023-05-29T02:20:51;10.57;;;5.25;;
30888;SDS011;51092;50.874;7.024;2023-05-29T02:21:53;8.35;;;4.88;;
30888;SDS011;51092;50.874;7.024;2023-05-29T02:22:55;11.40;;;4.82;;
30888;SDS011;51092;50.874;7.024;2023-05-29T02:23:58;10.77;;;4.95;;
30888;SDS011;51092;50.874;7.024;2023-05-29T02:24:59;11.90;;;4.40;;
30888;SDS011;51092;50.874;7.024;2023-05-29T02:26:02;13.32;;;5.50;;
30888;SDS011;51092;50.874;7.024;2023-05-29T02:27:03;7.32;;;4.70;;
30888;SDS011;51092;50.874;7.024;2023-05-29T02:28:06;10.75;;;4.85;;
30888;SDS011;51092;50.874;7.024;2023-05-29T02:29:08;7.70;;;4.38;;
30888;SDS011;51092;50.874;7.024;2023-05-29T02:30:13;7.68;;;5.10;;
30888;SDS011;51092;50.874;7.024;2023-05-29T02:31:14;8.20;;;4.43;;
30888;SDS011;51092;50.874;7.024;2023-05-29T02:32:17;10.80;;;5.40;;
30888;SDS011;51092;50.874;7.024;2023-05-29T02:33:23;8.70;;;5.68;;
30888;SDS011;51092;50.874;7.024;2023-05-29T02:34:26;8.40;;;4.28;;
30888;SDS011;51092;50.874;7.024;2023-05-29T02:35:28;9.27;;;4.95;;
30888;SDS011;51092;50.874;7.024;2023-05-29T02:36:30;10.95;;;5.10;;
30888;SDS011;51092;50.874;7.024;2023-05-29T02:37:32;9.02;;;4.85;;
30888;SDS011;51092;50.874;7.024;2023-05-29T02:38:34;8.27;;;4.15;;
30888;SDS011;51092;50.874;7.024;2023-05-29T02:39:34;11.88;;;4.65;;
30888;SDS011;51092;50.874;7.024;2023-05-29T02:40:36;10.25;;;4.90;;
30888;SDS011;51092;50.874;7.024;2023-05-29T02:41:37;7.00;;;4.47;;
30888;SDS011;51092;50.874;7.024;2023-05-29T02:42:40;9.48;;;5.30;;
30888;SDS011;51092;50.874;7.024;2023-05-29T02:43:41;7.80;;;4.75;;
30888;SDS011;51092;50.874;7.024;2023-05-29T02:44:43;9.10;;;5.30;;
30888;SDS011;51092;50.874;7.024;2023-05-29T02:45:46;11.18;;;4.82;;
30888;SDS011;51092;50.874;7.024;2023-05-29T02:46:49;9.57;;;5.22;;
30888;SDS011;51092;50.874;7.024;2023-05-29T02:47:50;7.28;;;4.53;;
30888;SDS011;51092;50.874;7.024;2023-05-29T02:48:53;7.13;;;4.55;;
30888;SDS011;51092;50.874;7.024;2023-05-29T02:49:54;9.02;;;4.22;;
30888;SDS011;51092;50.874;7.024;2023-05-29T02:50:57;10.38;;;4.97;;
30888;SDS011;51092;50.874;7.024;2023-05-29T02:51:58;9.23;;;4.40;;
30888;SDS011;51092;50.874;7.024;2023-05-29T02:53:01;9.15;;;4.70;;
30888;SDS011;51092;50.874;7.024;2023-05-29T02:54:02;12.68;;;5.30;;
30888;SDS011;51092;50.874;7.024;2023-05-29T02:55:05;9.40;;;5.22;;
30888;SDS011;51092;50.874;7.024;2023-05-29T02:56:07;8.27;;;4.60;;
30888;SDS011;51092;50.874;7.024;2023-05-29T02:57:10;8.98;;;5.00;;
30888;SDS011;51092;50.874;7.024;2023-05-29T02:58:11;8.82;;;4.88;;
30888;SDS011;51092;50.874;7.024;2023-05-29T02:59:14;8.20;;;4.63;;
30888;SDS011;51092;50.874;7.024;2023-05-29T03:00:15;8.30;;;5.57;;
30888;SDS011;51092;50.874;7.024;2023-05-29T03:01:20;10.15;;;5.15;;
30888;SDS011;51092;50.874;7.024;2023-05-29T03:02:22;8.95;;;5.35;;
30888;SDS011;51092;50.874;7.024;2023-05-29T03:03:24;10.40;;;5.10;;
30888;SDS011;51092;50.874;7.024;2023-05-29T03:04:26;10.85;;;4.80;;
30888;SDS011;51092;50.874;7.024;2023-05-29T03:05:28;6.75;;;5.15;;
30888;SDS011;51092;50.874;7.024;2023-05-29T03:06:30;11.20;;;4.82;;
30888;SDS011;51092;50.874;7.024;2023-05-29T03:07:33;8.88;;;4.95;;
30888;SDS011;51092;50.874;7.024;2023-05-29T03:08:35;9.63;;;5.18;;
30888;SDS011;51092;50.874;7.024;2023-05-29T03:09:40;9.10;;;5.10;;
30888;SDS011;51092;50.874;7.024;2023-05-29T03:10:42;10.45;;;5.00;;
30888;SDS011;51092;50.874;7.024;2023-05-29T03:11:45;14.60;;;4.72;;
30888;SDS011;51092;50.874;7.024;2023-05-29T03:12:48;11.40;;;4.57;;
30888;SDS011;51092;50.874;7.024;2023-05-29T03:13:52;12.23;;;6.30;;
30888;SDS011;51092;50.874;7.024;2023-05-29T03:14:53;11.32;;;5.35;;
30888;SDS011;51092;50.874;7.024;2023-05-29T03:15:57;11.07;;;5.15;;
30888;SDS011;51092;50.874;7.024;2023-05-29T03:17:00;10.35;;;5.15;;
30888;SDS011;51092;50.874;7.024;2023-05-29T03:18:02;8.25;;;4.85;;
30888;SDS011;51092;50.874;7.024;2023-05-29T03:19:04;9.70;;;4.45;;
30888;SDS011;51092;50.874;7.024;2023-05-29T03:20:08;7.10;;;4.63;;
30888;SDS011;51092;50.874;7.024;2023-05-29T03:21:11;11.30;;;5.32;;
30888;SDS011;51092;50.874;7.024;2023-05-29T03:22:13;7.95;;;4.82;;
30888;SDS011;51092;50.874;7.024;2023-05-29T03:23:15;9.32;;;5.07;;
30888;SDS011;51092;50.874;7.024;2023-05-29T03:24:18;9.35;;;4.55;;
30888;SDS011;51092;50.874;7.024;2023-05-29T03:25:19;12.48;;;5.35;;
30888;SDS011;51092;50.874;7.024;2023-05-29T03:26:23;11.80;;;5.53;;
30888;SDS011;51092;50.874;7.024;2023-05-29T03:27:24;7.75;;;4.22;;
30888;SDS011;51092;50.874;7.024;2023-05-29T03:28:26;9.20;;;5.13;;
30888;SDS011;51092;50.874;7.024;2023-05-29T03:29:28;8.48;;;4.80;;
30888;SDS011;51092;50.874;7.024;2023-05-29T03:30:31;17.10;;;5.40;;
30888;SDS011;51092;50.874;7.024;2023-05-29T03:31:33;9.73;;;5.25;;
30888;SDS011;51092;50.874;7.024;2023-05-29T03:32:37;7.68;;;4.40;;
30888;SDS011;51092;50.874;7.024;2023-05-29T03:33:39;9.52;;;5.22;;
30888;SDS011;51092;50.874;7.024;2023-05-29T03:34:41;8.15;;;5.05;;
30888;SDS011;51092;50.874;7.024;2023-05-29T03:35:43;11.27;;;4.85;;
30888;SDS011;51092;50.874;7.024;2023-05-29T03:36:45;10.40;;;5.53;;
30888;SDS011;51092;50.874;7.024;2023-05-29T03:37:48;11.05;;;5.60;;
30888;SDS011;51092;50.874;7.024;2023-05-29T03:38:49;12.05;;;5.35;;
30888;SDS011;51092;50.874;7.024;2023-05-29T03:39:52;9.70;;;4.53;;
30888;SDS011;51092;50.874;7.024;2023-05-29T03:40:53;9.85;;;4.90;;
30888;SDS011;51092;50.874;7.024;2023-05-29T03:41:56;11.05;;;4.90;;
30888;SDS011;51092;50.874;7.024;2023-05-29T03:42:57;10.63;;;5.20;;
30888;SDS011;51092;50.874;7.024;2023-05-29T03:44:00;15.02;;;5.85;;
30888;SDS011;51092;50.874;7.024;2023-05-29T03:45:01;10.63;;;4.55;;
30888;SDS011;51092;50.874;7.024;2023-05-29T03:46:04;10.70;;;5.43;;
30888;SDS011;51092;50.874;7.024;2023-05-29T03:47:05;9.80;;;4.90;;
30888;SDS011;51092;50.874;7.024;2023-05-29T03:48:10;14.38;;;5.10;;
30888;SDS011;51092;50.874;7.024;2023-05-29T03:49:12;11.88;;;5.97;;
30888;SDS011;51092;50.874;7.024;2023-05-29T03:50:14;10.85;;;4.68;;
30888;SDS011;51092;50.874;7.024;2023-05-29T03:51:16;9.20;;;5.05;;
30888;SDS011;51092;50.874;7.024;2023-05-29T03:52:18;11.25;;;4.88;;
30888;SDS011;51092;50.874;7.024;2023-05-29T03:53:20;14.15;;;7.60;;
30888;SDS011;51092;50.874;7.024;2023-05-29T03:54:22;12.52;;;4.07;;
30888;SDS011;51092;50.874;7.024;2023-05-29T03:55:25;7.88;;;4.85;;
30888;SDS011;51092;50.874;7.024;2023-05-29T03:56:28;14.45;;;5.93;;
30888;SDS011;51092;50.874;7.024;2023-05-29T03:57:30;14.05;;;5.68;;
30888;SDS011;51092;50.874;7.024;2023-05-29T03:58:33;11.43;;;5.55;;
30888;SDS011;51092;50.874;7.024;2023-05-29T03:59:34;9.73;;;4.82;;
30888;SDS011;51092;50.874;7.024;2023-05-29T04:00:37;15.25;;;5.45;;
30888;SDS011;51092;50.874;7.024;2023-05-29T04:01:39;11.70;;;5.45;;
30888;SDS011;51092;50.874;7.024;2023-05-29T04:02:41;11.25;;;5.32;;
30888;SDS011;51092;50.874;7.024;2023-05-29T04:03:48;14.73;;;5.15;;
30888;SDS011;51092;50.874;7.024;2023-05-29T04:04:51;14.00;;;4.90;;
30888;SDS011;51092;50.874;7.024;2023-05-29T04:05:53;11.65;;;6.20;;
30888;SDS011;51092;50.874;7.024;2023-05-29T04:06:56;11.43;;;5.20;;
30888;SDS011;51092;50.874;7.024;2023-05-29T04:07:57;14.30;;;5.15;;
30888;SDS011;51092;50.874;7.024;2023-05-29T04:09:01;18.50;;;5.43;;
30888;SDS011;51092;50.874;7.024;2023-05-29T04:10:03;13.82;;;5.85;;
30888;SDS011;51092;50.874;7.024;2023-05-29T04:11:06;16.42;;;6.28;;
30888;SDS011;51092;50.874;7.024;2023-05-29T04:12:08;21.15;;;5.68;;
30888;SDS011;51092;50.874;7.024;2023-05-29T04:13:10;13.70;;;5.60;;
30888;SDS011;51092;50.874;7.024;2023-05-29T04:14:12;11.77;;;4.82;;
30888;SDS011;51092;50.874;7.024;2023-05-29T04:15:14;15.40;;;5.43;;
30888;SDS011;51092;50.874;7.024;2023-05-29T04:16:16;15.75;;;6.47;;
30888;SDS011;51092;50.874;7.024;2023-05-29T04:17:18;10.02;;;6.13;;
30888;SDS011;51092;50.874;7.024;2023-05-29T04:18:19;20.10;;;6.28;;
30888;SDS011;51092;50.874;7.024;2023-05-29T04:19:23;10.65;;;6.10;;
30888;SDS011;51092;50.874;7.024;2023-05-29T04:20:24;13.00;;;5.40;;
30888;SDS011;51092;50.874;7.024;2023-05-29T04:21:27;11.02;;;5.72;;
30888;SDS011;51092;50.874;7.024;2023-05-29T04:22:29;12.68;;;5.95;;
30888;SDS011;51092;50.874;7.024;2023-05-29T04:23:32;14.18;;;6.45;;
30888;SDS011;51092;50.874;7.024;2023-05-29T04:24:37;19.40;;;6.07;;
30888;SDS011;51092;50.874;7.024;2023-05-29T04:25:39;11.65;;;6.10;;
30888;SDS011;51092;50.874;7.024;2023-05-29T04:26:41;15.63;;;5.85;;
30888;SDS011;51092;50.874;7.024;2023-05-29T04:27:47;16.52;;;5.72;;
30888;SDS011;51092;50.874;7.024;2023-05-29T04:28:49;12.88;;;5.95;;
30888;SDS011;51092;50.874;7.024;2023-05-29T04:29:53;13.13;;;6.55;;
30888;SDS011;51092;50.874;7.024;2023-05-29T04:30:56;11.25;;;5.40;;
30888;SDS011;51092;50.874;7.024;2023-05-29T04:31:59;15.98;;;6.80;;
30888;SDS011;51092;50.874;7.024;2023-05-29T04:33:03;12.55;;;5.88;;
30888;SDS011;51092;50.874;7.024;2023-05-29T04:34:06;11.23;;;5.80;;
30888;SDS011;51092;50.874;7.024;2023-05-29T04:35:09;15.50;;;6.18;;
30888;SDS011;51092;50.874;7.024;2023-05-29T04:36:12;17.90;;;8.30;;
30888;SDS011;51092;50.874;7.024;2023-05-29T04:37:14;11.52;;;5.10;;
30888;SDS011;51092;50.874;7.024;2023-05-29T04:38:16;13.27;;;5.82;;
30888;SDS011;51092;50.874;7.024;2023-05-29T04:39:17;18.08;;;6.00;;
30888;SDS011;51092;50.874;7.024;2023-05-29T04:40:22;13.73;;;6.00;;
30888;SDS011;51092;50.874;7.024;2023-05-29T04:41:24;15.30;;;6.30;;
30888;SDS011;51092;50.874;7.024;2023-05-29T04:42:30;15.60;;;6.40;;
30888;SDS011;51092;50.874;7.024;2023-05-29T04:43:34;14.25;;;5.60;;
30888;SDS011;51092;50.874;7.024;2023-05-29T04:44:37;17.98;;;6.63;;
30888;SDS011;51092;50.874;7.024;2023-05-29T04:45:40;13.73;;;6.15;;
30888;SDS011;51092;50.874;7.024;2023-05-29T04:46:42;10.73;;;6.68;;
30888;SDS011;51092;50.874;7.024;2023-05-29T04:47:45;15.30;;;6.78;;
30888;SDS011;51092;50.874;7.024;2023-05-29T04:48:46;13.13;;;6.53;;
30888;SDS011;51092;50.874;7.024;2023-05-29T04:49:53;17.17;;;7.07;;
30888;SDS011;51092;50.874;7.024;2023-05-29T04:50:56;15.80;;;5.80;;
30888;SDS011;51092;50.874;7.024;2023-05-29T04:52:00;12.43;;;6.22;;
30888;SDS011;51092;50.874;7.024;2023-05-29T04:53:03;15.68;;;6.80;;
30888;SDS011;51092;50.874;7.024;2023-05-29T04:54:04;17.63;;;6.88;;
30888;SDS011;51092;50.874;7.024;2023-05-29T04:55:07;13.85;;;6.75;;
30888;SDS011;51092;50.874;7.024;2023-05-29T04:56:11;13.85;;;5.43;;
30888;SDS011;51092;50.874;7.024;2023-05-29T04:57:12;14.05;;;5.78;;
30888;SDS011;51092;50.874;7.024;2023-05-29T04:58:15;14.43;;;5.75;;
30888;SDS011;51092;50.874;7.024;2023-05-29T04:59:16;20.35;;;7.45;;
30888;SDS011;51092;50.874;7.024;2023-05-29T05:00:19;18.77;;;6.93;;
30888;SDS011;51092;50.874;7.024;2023-05-29T05:01:21;17.77;;;6.07;;
30888;SDS011;51092;50.874;7.024;2023-05-29T05:02:24;15.45;;;6.10;;
30888;SDS011;51092;50.874;7.024;2023-05-29T05:03:27;16.20;;;6.53;;
30888;SDS011;51092;50.874;7.024;2023-05-29T05:04:29;14.13;;;6.40;;
30888;SDS011;51092;50.874;7.024;2023-05-29T05:05:30;14.38;;;6.25;;
30888;SDS011;51092;50.874;7.024;2023-05-29T05:06:35;15.65;;;5.80;;
30888;SDS011;51092;50.874;7.024;2023-05-29T05:07:36;13.13;;;6.30;;
30888;SDS011;51092;50.874;7.024;2023-05-29T05:08:40;17.10;;;6.05;;
30888;SDS011;51092;50.874;7.024;2023-05-29T05:09:42;16.95;;;6.70;;
30888;SDS011;51092;50.874;7.024;2023-05-29T05:10:44;14.25;;;6.57;;
30888;SDS011;51092;50.874;7.024;2023-05-29T05:11:46;20.63;;;6.68;;
30888;SDS011;51092;50.874;7.024;2023-05-29T05:12:48;13.57;;;5.93;;
30888;SDS011;51092;50.874;7.024;2023-05-29T05:13:49;17.63;;;6.65;;
30888;SDS011;51092;50.874;7.024;2023-05-29T05:14:50;13.40;;;5.40;;
30888;SDS011;51092;50.874;7.024;2023-05-29T05:15:52;13.68;;;6.82;;
30888;SDS011;51092;50.874;7.024;2023-05-29T05:16:54;14.60;;;6.70;;
30888;SDS011;51092;50.874;7.024;2023-05-29T05:17:57;12.27;;;6.88;;
30888;SDS011;51092;50.874;7.024;2023-05-29T05:18:58;13.60;;;5.88;;
30888;SDS011;51092;50.874;7.024;2023-05-29T05:20:01;20.67;;;6.97;;
30888;SDS011;51092;50.874;7.024;2023-05-29T05:21:04;14.35;;;6.35;;
30888;SDS011;51092;50.874;7.024;2023-05-29T05:22:07;19.48;;;6.90;;
30888;SDS011;51092;50.874;7.024;2023-05-29T05:23:08;13.07;;;6.30;;
30888;SDS011;51092;50.874;7.024;2023-05-29T05:24:10;16.63;;;6.20;;
30888;SDS011;51092;50.874;7.024;2023-05-29T05:25:12;22.63;;;6.75;;
30888;SDS011;51092;50.874;7.024;2023-05-29T05:26:15;16.50;;;6.10;;
30888;SDS011;51092;50.874;7.024;2023-05-29T05:27:16;19.35;;;6.63;;
30888;SDS011;51092;50.874;7.024;2023-05-29T05:28:19;17.40;;;6.75;;
30888;SDS011;51092;50.874;7.024;2023-05-29T05:29:20;17.08;;;6.80;;
30888;SDS011;51092;50.874;7.024;2023-05-29T05:30:23;15.73;;;6.50;;
30888;SDS011;51092;50.874;7.024;2023-05-29T05:31:24;12.45;;;6.03;;
30888;SDS011;51092;50.874;7.024;2023-05-29T05:32:27;15.50;;;6.65;;
30888;SDS011;51092;50.874;7.024;2023-05-29T05:33:28;17.92;;;7.00;;
30888;SDS011;51092;50.874;7.024;2023-05-29T05:34:31;13.32;;;7.03;;
30888;SDS011;51092;50.874;7.024;2023-05-29T05:35:32;16.30;;;6.85;;
30888;SDS011;51092;50.874;7.024;2023-05-29T05:36:35;16.52;;;6.20;;
30888;SDS011;51092;50.874;7.024;2023-05-29T05:37:38;16.40;;;7.53;;
30888;SDS011;51092;50.874;7.024;2023-05-29T05:38:41;13.02;;;6.22;;
30888;SDS011;51092;50.874;7.024;2023-05-29T05:39:43;17.65;;;6.75;;
30888;SDS011;51092;50.874;7.024;2023-05-29T05:40:45;13.82;;;6.03;;
30888;SDS011;51092;50.874;7.024;2023-05-29T05:41:47;19.05;;;6.90;;
30888;SDS011;51092;50.874;7.024;2023-05-29T05:42:49;18.92;;;6.65;;
30888;SDS011;51092;50.874;7.024;2023-05-29T05:43:51;18.67;;;6.55;;
30888;SDS011;51092;50.874;7.024;2023-05-29T05:44:53;16.63;;;6.90;;
30888;SDS011;51092;50.874;7.024;2023-05-29T05:45:55;15.75;;;6.13;;
30888;SDS011;51092;50.874;7.024;2023-05-29T05:46:58;17.52;;;6.90;;
30888;SDS011;51092;50.874;7.024;2023-05-29T05:48:00;15.40;;;6.40;;
30888;SDS011;51092;50.874;7.024;2023-05-29T05:49:03;16.95;;;6.82;;
30888;SDS011;51092;50.874;7.024;2023-05-29T05:50:05;18.58;;;6.72;;
30888;SDS011;51092;50.874;7.024;2023-05-29T05:51:08;20.02;;;7.05;;
30888;SDS011;51092;50.874;7.024;2023-05-29T05:52:09;21.38;;;6.90;;
30888;SDS011;51092;50.874;7.024;2023-05-29T05:53:13;18.17;;;7.07;;
30888;SDS011;51092;50.874;7.024;2023-05-29T05:54:15;20.55;;;7.32;;
30888;SDS011;51092;50.874;7.024;2023-05-29T05:55:17;19.17;;;7.07;;
30888;SDS011;51092;50.874;7.024;2023-05-29T05:56:20;18.30;;;7.10;;
30888;SDS011;51092;50.874;7.024;2023-05-29T05:57:22;14.93;;;6.75;;
30888;SDS011;51092;50.874;7.024;2023-05-29T05:58:24;18.25;;;7.05;;
30888;SDS011;51092;50.874;7.024;2023-05-29T05:59:26;19.88;;;7.40;;
30888;SDS011;51092;50.874;7.024;2023-05-29T06:00:29;13.05;;;6.55;;
30888;SDS011;51092;50.874;7.024;2023-05-29T06:01:31;17.45;;;6.55;;
30888;SDS011;51092;50.874;7.024;2023-05-29T06:02:33;16.50;;;6.93;;
30888;SDS011;51092;50.874;7.024;2023-05-29T06:03:36;14.40;;;7.38;;
30888;SDS011;51092;50.874;7.024;2023-05-29T06:04:38;12.55;;;6.47;;
30888;SDS011;51092;50.874;7.024;2023-05-29T06:05:40;17.90;;;6.85;;
30888;SDS011;51092;50.874;7.024;2023-05-29T06:06:42;23.48;;;8.38;;
30888;SDS011;51092;50.874;7.024;2023-05-29T06:07:44;22.75;;;8.35;;
30888;SDS011;51092;50.874;7.024;2023-05-29T06:08:48;19.30;;;6.55;;
30888;SDS011;51092;50.874;7.024;2023-05-29T06:09:50;23.80;;;7.43;;
30888;SDS011;51092;50.874;7.024;2023-05-29T06:10:51;16.48;;;6.40;;
30888;SDS011;51092;50.874;7.024;2023-05-29T06:11:54;16.63;;;6.25;;
30888;SDS011;51092;50.874;7.024;2023-05-29T06:12:55;18.33;;;8.27;;
30888;SDS011;51092;50.874;7.024;2023-05-29T06:13:58;14.60;;;6.07;;
30888;SDS011;51092;50.874;7.024;2023-05-29T06:15:00;19.40;;;8.27;;
30888;SDS011;51092;50.874;7.024;2023-05-29T06:16:03;19.98;;;7.43;;